sensor_id;sensor_type;location;lat;lon;timestamp;temperature;humidity
10848;DHT22;5477;48.806;9.154;2023-05-10T00:02:21;14.80;99.90
10848;DHT22;5477;48.806;9.154;2023-05-10T00:04:49;14.70;99.90
10848;DHT22;5477;48.806;9.154;2023-05-10T00:07:17;14.70;99.90
10848;DHT22;5477;48.806;9.154;2023-05-10T00:09:46;14.60;99.90
10848;DHT22;5477;48.806;9.154;2023-05-10T00:12:15;14.50;99.90
10848;DHT22;5477;48.806;9.154;2023-05-10T00:14:43;14.40;99.90
10848;DHT22;5477;48.806;9.154;2023-05-10T00:17:11;14.30;99.90
10848;DHT22;5477;48.806;9.154;2023-05-10T00:19:39;14.20;99.90
10848;DHT22;5477;48.806;9.154;2023-05-10T00:22:07;14.10;99.90
10848;DHT22;5477;48.806;9.154;2023-05-10T00:24:35;14.10;99.90
10848;DHT22;5477;48.806;9.154;2023-05-10T00:27:03;14.10;99.90
10848;DHT22;5477;48.806;9.154;2023-05-10T00:29:33;14.00;99.90
10848;DHT22;5477;48.806;9.154;2023-05-10T00:32:00;13.90;99.90
10848;DHT22;5477;48.806;9.154;2023-05-10T00:34:28;13.90;99.90
10848;DHT22;5477;48.806;9.154;2023-05-10T00:36:57;13.80;99.90
10848;DHT22;5477;48.806;9.154;2023-05-10T00:39:26;13.70;99.90
10848;DHT22;5477;48.806;9.154;2023-05-10T00:41:55;13.70;99.90
10848;DHT22;5477;48.806;9.154;2023-05-10T00:44:23;13.70;99.90
10848;DHT22;5477;48.806;9.154;2023-05-10T00:46:52;13.70;99.90
10848;DHT22;5477;48.806;9.154;2023-05-10T00:49:20;13.70;99.90
10848;DHT22;5477;48.806;9.154;2023-05-10T00:51:49;13.70;99.90
10848;DHT22;5477;48.806;9.154;2023-05-10T00:54:17;13.70;99.90
10848;DHT22;5477;48.806;9.154;2023-05-10T00:56:45;13.70;99.90
10848;DHT22;5477;48.806;9.154;2023-05-10T00:59:16;13.60;99.90
10848;DHT22;5477;48.806;9.154;2023-05-10T01:01:44;13.60;99.90
10848;DHT22;5477;48.806;9.154;2023-05-10T01:04:14;13.50;99.90
10848;DHT22;5477;48.806;9.154;2023-05-10T01:06:43;13.50;99.90
10848;DHT22;5477;48.806;9.154;2023-05-10T01:09:11;13.40;99.90
10848;DHT22;5477;48.806;9.154;2023-05-10T01:11:39;13.40;99.90
10848;DHT22;5477;48.806;9.154;2023-05-10T01:14:08;13.40;99.90
10848;DHT22;5477;48.806;9.154;2023-05-10T01:16:38;13.40;99.90
10848;DHT22;5477;48.806;9.154;2023-05-10T01:19:11;13.40;99.90
10848;DHT22;5477;48.806;9.154;2023-05-10T01:21:48;13.50;99.90
10848;DHT22;5477;48.806;9.154;2023-05-10T01:24:54;13.50;99.90
10848;DHT22;5477;48.806;9.154;2023-05-10T01:27:48;13.40;99.90
10848;DHT22;5477;48.806;9.154;2023-05-10T01:30:47;13.40;99.90
10848;DHT22;5477;48.806;9.154;2023-05-10T01:33:24;13.40;99.90
10848;DHT22;5477;48.806;9.154;2023-05-10T01:35:59;13.40;99.90
10848;DHT22;5477;48.806;9.154;2023-05-10T01:38:45;13.50;99.90
10848;DHT22;5477;48.806;9.154;2023-05-10T01:41:19;13.50;99.90
10848;DHT22;5477;48.806;9.154;2023-05-10T01:43:55;13.50;99.90
10848;DHT22;5477;48.806;9.154;2023-05-10T01:46:28;13.50;99.90
10848;DHT22;5477;48.806;9.154;2023-05-10T01:48:59;13.50;99.90
10848;DHT22;5477;48.806;9.154;2023-05-10T01:51:39;13.50;99.90
10848;DHT22;5477;48.806;9.154;2023-05-10T01:54:11;13.60;99.90
10848;DHT22;5477;48.806;9.154;2023-05-10T01:56:42;13.50;99.90
10848;DHT22;5477;48.806;9.154;2023-05-10T01:59:13;13.40;99.90
10848;DHT22;5477;48.806;9.154;2023-05-10T02:01:43;13.40;99.90
10848;DHT22;5477;48.806;9.154;2023-05-10T02:04:16;13.40;99.90
10848;DHT22;5477;48.806;9.154;2023-05-10T02:06:47;13.50;99.90
10848;DHT22;5477;48.806;9.154;2023-05-10T02:09:17;13.40;99.90
10848;DHT22;5477;48.806;9.154;2023-05-10T02:11:48;13.40;99.90
10848;DHT22;5477;48.806;9.154;2023-05-10T02:14:18;13.40;99.90
10848;DHT22;5477;48.806;9.154;2023-05-10T02:16:48;13.40;99.90
10848;DHT22;5477;48.806;9.154;2023-05-10T02:19:19;13.40;99.90
10848;DHT22;5477;48.806;9.154;2023-05-10T02:21:49;13.40;99.90
10848;DHT22;5477;48.806;9.154;2023-05-10T02:24:19;13.40;99.90
10848;DHT22;5477;48.806;9.154;2023-05-10T02:26:48;13.30;99.90
10848;DHT22;5477;48.806;9.154;2023-05-10T02:29:18;13.30;99.90
10848;DHT22;5477;48.806;9.154;2023-05-10T02:31:47;13.20;99.90
10848;DHT22;5477;48.806;9.154;2023-05-10T02:34:15;13.10;99.90
10848;DHT22;5477;48.806;9.154;2023-05-10T02:36:46;13.10;99.90
10848;DHT22;5477;48.806;9.154;2023-05-10T02:39:15;13.00;99.90
10848;DHT22;5477;48.806;9.154;2023-05-10T02:41:45;13.00;99.90
10848;DHT22;5477;48.806;9.154;2023-05-10T02:44:15;12.90;99.90
10848;DHT22;5477;48.806;9.154;2023-05-10T02:46:46;12.90;99.90
10848;DHT22;5477;48.806;9.154;2023-05-10T02:49:14;13.00;99.90
10848;DHT22;5477;48.806;9.154;2023-05-10T02:51:47;13.00;99.90
10848;DHT22;5477;48.806;9.154;2023-05-10T02:54:20;12.90;99.90
10848;DHT22;5477;48.806;9.154;2023-05-10T02:56:51;12.90;99.90
10848;DHT22;5477;48.806;9.154;2023-05-10T02:59:20;12.90;99.90
10848;DHT22;5477;48.806;9.154;2023-05-10T03:01:48;13.00;99.90
10848;DHT22;5477;48.806;9.154;2023-05-10T03:04:16;12.90;99.90
10848;DHT22;5477;48.806;9.154;2023-05-10T03:06:46;12.90;99.90
10848;DHT22;5477;48.806;9.154;2023-05-10T03:09:14;12.90;99.90
10848;DHT22;5477;48.806;9.154;2023-05-10T03:11:54;12.90;99.90
10848;DHT22;5477;48.806;9.154;2023-05-10T03:14:36;12.90;99.90
10848;DHT22;5477;48.806;9.154;2023-05-10T03:17:10;12.90;99.90
10848;DHT22;5477;48.806;9.154;2023-05-10T03:19:45;12.90;99.90
10848;DHT22;5477;48.806;9.154;2023-05-10T03:22:23;12.80;99.90
10848;DHT22;5477;48.806;9.154;2023-05-10T03:24:54;12.90;99.90
10848;DHT22;5477;48.806;9.154;2023-05-10T03:27:26;12.90;99.90
10848;DHT22;5477;48.806;9.154;2023-05-10T03:29:55;12.90;99.90
10848;DHT22;5477;48.806;9.154;2023-05-10T03:32:24;12.90;99.90
10848;DHT22;5477;48.806;9.154;2023-05-10T03:34:53;13.00;99.90
10848;DHT22;5477;48.806;9.154;2023-05-10T03:37:24;13.00;99.90
10848;DHT22;5477;48.806;9.154;2023-05-10T03:39:52;13.10;99.90
10848;DHT22;5477;48.806;9.154;2023-05-10T03:42:21;13.10;99.90
10848;DHT22;5477;48.806;9.154;2023-05-10T03:44:49;13.10;99.90
10848;DHT22;5477;48.806;9.154;2023-05-10T03:47:17;13.10;99.90
10848;DHT22;5477;48.806;9.154;2023-05-10T03:49:45;13.10;99.90
10848;DHT22;5477;48.806;9.154;2023-05-10T03:52:13;13.10;99.90
10848;DHT22;5477;48.806;9.154;2023-05-10T03:54:42;13.10;99.90
10848;DHT22;5477;48.806;9.154;2023-05-10T03:57:10;13.10;99.90
10848;DHT22;5477;48.806;9.154;2023-05-10T03:59:38;13.10;99.90
10848;DHT22;5477;48.806;9.154;2023-05-10T04:02:06;13.00;99.90
10848;DHT22;5477;48.806;9.154;2023-05-10T04:04:35;13.00;99.90
10848;DHT22;5477;48.806;9.154;2023-05-10T04:07:04;12.90;99.90
10848;DHT22;5477;48.806;9.154;2023-05-10T04:09:32;13.00;99.90
10848;DHT22;5477;48.806;9.154;2023-05-10T04:12:01;13.00;99.90
10848;DHT22;5477;48.806;9.154;2023-05-10T04:14:29;12.90;99.90
10848;DHT22;5477;48.806;9.154;2023-05-10T04:16:57;12.90;99.90
10848;DHT22;5477;48.806;9.154;2023-05-10T04:19:29;12.80;99.90
10848;DHT22;5477;48.806;9.154;2023-05-10T04:21:57;12.80;99.90
10848;DHT22;5477;48.806;9.154;2023-05-10T04:24:25;12.90;99.90
10848;DHT22;5477;48.806;9.154;2023-05-10T04:26:54;12.90;99.90
10848;DHT22;5477;48.806;9.154;2023-05-10T04:29:25;12.90;99.90
10848;DHT22;5477;48.806;9.154;2023-05-10T04:31:53;12.90;99.90
10848;DHT22;5477;48.806;9.154;2023-05-10T04:34:21;12.90;99.90
10848;DHT22;5477;48.806;9.154;2023-05-10T04:36:49;12.90;99.90
10848;DHT22;5477;48.806;9.154;2023-05-10T04:39:17;12.90;99.90
10848;DHT22;5477;48.806;9.154;2023-05-10T04:41:45;12.90;99.90
10848;DHT22;5477;48.806;9.154;2023-05-10T04:44:13;13.00;99.90
10848;DHT22;5477;48.806;9.154;2023-05-10T04:46:42;13.10;99.90
10848;DHT22;5477;48.806;9.154;2023-05-10T04:49:10;13.10;99.90
10848;DHT22;5477;48.806;9.154;2023-05-10T04:51:38;13.10;99.90
10848;DHT22;5477;48.806;9.154;2023-05-10T04:54:06;13.20;99.90
10848;DHT22;5477;48.806;9.154;2023-05-10T04:56:34;13.30;99.90
10848;DHT22;5477;48.806;9.154;2023-05-10T04:59:02;13.40;99.90
10848;DHT22;5477;48.806;9.154;2023-05-10T05:01:30;13.40;99.90
10848;DHT22;5477;48.806;9.154;2023-05-10T05:03:59;13.40;99.90
10848;DHT22;5477;48.806;9.154;2023-05-10T05:06:28;13.40;99.90
10848;DHT22;5477;48.806;9.154;2023-05-10T05:08:56;13.40;99.90
10848;DHT22;5477;48.806;9.154;2023-05-10T05:11:24;13.50;99.90
10848;DHT22;5477;48.806;9.154;2023-05-10T05:13:52;13.50;99.90
10848;DHT22;5477;48.806;9.154;2023-05-10T05:16:20;13.50;99.90
10848;DHT22;5477;48.806;9.154;2023-05-10T05:18:48;13.50;99.90
10848;DHT22;5477;48.806;9.154;2023-05-10T05:21:18;13.50;99.90
10848;DHT22;5477;48.806;9.154;2023-05-10T05:23:46;13.60;99.90
10848;DHT22;5477;48.806;9.154;2023-05-10T05:26:14;13.60;99.90
10848;DHT22;5477;48.806;9.154;2023-05-10T05:28:42;13.70;99.90
10848;DHT22;5477;48.806;9.154;2023-05-10T05:31:10;13.70;99.90
10848;DHT22;5477;48.806;9.154;2023-05-10T05:33:38;13.80;99.90
10848;DHT22;5477;48.806;9.154;2023-05-10T05:36:07;13.80;99.90
10848;DHT22;5477;48.806;9.154;2023-05-10T05:38:36;13.80;99.90
10848;DHT22;5477;48.806;9.154;2023-05-10T05:41:04;13.90;99.90
10848;DHT22;5477;48.806;9.154;2023-05-10T05:43:32;13.90;99.90
10848;DHT22;5477;48.806;9.154;2023-05-10T05:46:04;14.00;99.90
10848;DHT22;5477;48.806;9.154;2023-05-10T05:48:32;14.10;99.90
10848;DHT22;5477;48.806;9.154;2023-05-10T05:51:00;14.10;99.90
10848;DHT22;5477;48.806;9.154;2023-05-10T05:53:28;14.20;99.90
10848;DHT22;5477;48.806;9.154;2023-05-10T05:55:58;14.20;99.90
10848;DHT22;5477;48.806;9.154;2023-05-10T05:58:26;14.20;99.90
10848;DHT22;5477;48.806;9.154;2023-05-10T06:00:54;14.20;99.90
10848;DHT22;5477;48.806;9.154;2023-05-10T06:03:22;14.20;99.90
10848;DHT22;5477;48.806;9.154;2023-05-10T06:05:50;14.30;99.90
10848;DHT22;5477;48.806;9.154;2023-05-10T06:08:18;14.20;99.90
10848;DHT22;5477;48.806;9.154;2023-05-10T06:10:46;14.30;99.90
10848;DHT22;5477;48.806;9.154;2023-05-10T06:13:16;14.30;99.90
10848;DHT22;5477;48.806;9.154;2023-05-10T06:15:44;14.30;99.90
10848;DHT22;5477;48.806;9.154;2023-05-10T06:18:12;14.40;99.90
10848;DHT22;5477;48.806;9.154;2023-05-10T06:20:41;14.40;99.90
10848;DHT22;5477;48.806;9.154;2023-05-10T06:23:09;14.40;99.90
10848;DHT22;5477;48.806;9.154;2023-05-10T06:25:37;14.50;99.90
10848;DHT22;5477;48.806;9.154;2023-05-10T06:28:05;14.50;99.90
10848;DHT22;5477;48.806;9.154;2023-05-10T06:30:36;14.50;99.90
10848;DHT22;5477;48.806;9.154;2023-05-10T06:33:04;14.40;99.90
10848;DHT22;5477;48.806;9.154;2023-05-10T06:35:32;14.40;99.90
10848;DHT22;5477;48.806;9.154;2023-05-10T06:38:00;14.50;99.90
10848;DHT22;5477;48.806;9.154;2023-05-10T06:40:28;14.60;99.90
10848;DHT22;5477;48.806;9.154;2023-05-10T06:42:56;14.50;99.90
10848;DHT22;5477;48.806;9.154;2023-05-10T06:45:24;14.60;99.90
10848;DHT22;5477;48.806;9.154;2023-05-10T06:47:53;14.70;99.90
10848;DHT22;5477;48.806;9.154;2023-05-10T06:50:21;14.60;99.90
10848;DHT22;5477;48.806;9.154;2023-05-10T06:52:49;14.60;99.90
10848;DHT22;5477;48.806;9.154;2023-05-10T06:55:19;14.60;99.90
10848;DHT22;5477;48.806;9.154;2023-05-10T06:57:47;14.60;99.90
10848;DHT22;5477;48.806;9.154;2023-05-10T07:00:15;14.60;99.90
10848;DHT22;5477;48.806;9.154;2023-05-10T07:02:44;14.60;99.90
10848;DHT22;5477;48.806;9.154;2023-05-10T07:05:13;14.70;99.90
10848;DHT22;5477;48.806;9.154;2023-05-10T07:07:42;14.50;99.90
10848;DHT22;5477;48.806;9.154;2023-05-10T07:10:10;14.60;99.90
10848;DHT22;5477;48.806;9.154;2023-05-10T07:12:37;14.60;99.90
10848;DHT22;5477;48.806;9.154;2023-05-10T07:15:07;14.70;99.90
10848;DHT22;5477;48.806;9.154;2023-05-10T07:17:35;14.70;99.90
10848;DHT22;5477;48.806;9.154;2023-05-10T07:20:04;14.80;99.90
10848;DHT22;5477;48.806;9.154;2023-05-10T07:22:34;14.90;99.90
10848;DHT22;5477;48.806;9.154;2023-05-10T07:25:03;15.00;99.90
10848;DHT22;5477;48.806;9.154;2023-05-10T07:27:31;15.10;99.90
10848;DHT22;5477;48.806;9.154;2023-05-10T07:29:59;15.20;99.90
10848;DHT22;5477;48.806;9.154;2023-05-10T07:32:28;15.30;99.90
10848;DHT22;5477;48.806;9.154;2023-05-10T07:34:56;15.30;99.90
10848;DHT22;5477;48.806;9.154;2023-05-10T07:37:24;15.40;99.90
10848;DHT22;5477;48.806;9.154;2023-05-10T07:39:53;15.50;99.90
10848;DHT22;5477;48.806;9.154;2023-05-10T07:42:22;15.50;99.90
10848;DHT22;5477;48.806;9.154;2023-05-10T07:44:50;15.60;99.90
10848;DHT22;5477;48.806;9.154;2023-05-10T07:47:18;15.80;99.90
10848;DHT22;5477;48.806;9.154;2023-05-10T07:49:46;15.80;99.90
10848;DHT22;5477;48.806;9.154;2023-05-10T07:52:14;15.70;99.90
10848;DHT22;5477;48.806;9.154;2023-05-10T07:54:42;15.70;99.90
10848;DHT22;5477;48.806;9.154;2023-05-10T07:57:12;15.80;99.90
10848;DHT22;5477;48.806;9.154;2023-05-10T07:59:44;15.70;99.90
10848;DHT22;5477;48.806;9.154;2023-05-10T08:02:12;15.70;99.90
10848;DHT22;5477;48.806;9.154;2023-05-10T08:04:40;15.80;99.90
10848;DHT22;5477;48.806;9.154;2023-05-10T08:07:08;15.80;99.90
10848;DHT22;5477;48.806;9.154;2023-05-10T08:09:37;15.90;99.90
10848;DHT22;5477;48.806;9.154;2023-05-10T08:12:05;15.90;99.90
10848;DHT22;5477;48.806;9.154;2023-05-10T08:14:35;15.90;99.90
10848;DHT22;5477;48.806;9.154;2023-05-10T08:17:03;15.80;99.90
10848;DHT22;5477;48.806;9.154;2023-05-10T08:19:31;15.80;99.90
10848;DHT22;5477;48.806;9.154;2023-05-10T08:21:59;15.60;99.90
10848;DHT22;5477;48.806;9.154;2023-05-10T08:24:27;15.60;99.90
10848;DHT22;5477;48.806;9.154;2023-05-10T08:26:55;15.60;99.90
10848;DHT22;5477;48.806;9.154;2023-05-10T08:29:24;15.80;99.90
10848;DHT22;5477;48.806;9.154;2023-05-10T08:31:55;15.90;99.90
10848;DHT22;5477;48.806;9.154;2023-05-10T08:34:23;16.10;99.90
10848;DHT22;5477;48.806;9.154;2023-05-10T08:36:52;16.20;99.90
10848;DHT22;5477;48.806;9.154;2023-05-10T08:39:20;16.20;99.90
10848;DHT22;5477;48.806;9.154;2023-05-10T08:42:01;16.30;99.90
10848;DHT22;5477;48.806;9.154;2023-05-10T08:44:30;16.30;99.90
10848;DHT22;5477;48.806;9.154;2023-05-10T08:47:04;16.20;99.90
10848;DHT22;5477;48.806;9.154;2023-05-10T08:49:33;16.20;99.90
10848;DHT22;5477;48.806;9.154;2023-05-10T08:52:03;16.40;99.90
10848;DHT22;5477;48.806;9.154;2023-05-10T08:54:32;16.50;99.90
10848;DHT22;5477;48.806;9.154;2023-05-10T08:57:01;16.40;99.90
10848;DHT22;5477;48.806;9.154;2023-05-10T08:59:30;16.50;99.90
10848;DHT22;5477;48.806;9.154;2023-05-10T09:01:58;16.70;99.90
10848;DHT22;5477;48.806;9.154;2023-05-10T09:04:28;16.60;99.90
10848;DHT22;5477;48.806;9.154;2023-05-10T09:06:57;16.70;99.90
10848;DHT22;5477;48.806;9.154;2023-05-10T09:09:25;16.90;99.90
10848;DHT22;5477;48.806;9.154;2023-05-10T09:11:54;16.90;99.90
10848;DHT22;5477;48.806;9.154;2023-05-10T09:14:23;17.00;99.90
10848;DHT22;5477;48.806;9.154;2023-05-10T09:16:52;17.20;99.90
10848;DHT22;5477;48.806;9.154;2023-05-10T09:19:21;17.20;99.90
10848;DHT22;5477;48.806;9.154;2023-05-10T09:21:51;17.30;99.90
10848;DHT22;5477;48.806;9.154;2023-05-10T09:24:19;17.30;99.90
10848;DHT22;5477;48.806;9.154;2023-05-10T09:26:47;16.90;99.90
10848;DHT22;5477;48.806;9.154;2023-05-10T09:29:16;17.00;99.90
10848;DHT22;5477;48.806;9.154;2023-05-10T09:31:45;16.90;99.90
10848;DHT22;5477;48.806;9.154;2023-05-10T09:34:18;16.90;99.90
10848;DHT22;5477;48.806;9.154;2023-05-10T09:36:54;16.90;99.90
10848;DHT22;5477;48.806;9.154;2023-05-10T09:39:30;17.10;99.90
10848;DHT22;5477;48.806;9.154;2023-05-10T09:41:59;17.00;99.90
10848;DHT22;5477;48.806;9.154;2023-05-10T09:44:30;17.20;99.90
10848;DHT22;5477;48.806;9.154;2023-05-10T09:46:59;17.10;99.90
10848;DHT22;5477;48.806;9.154;2023-05-10T09:49:26;17.10;99.90
10848;DHT22;5477;48.806;9.154;2023-05-10T09:52:03;17.00;99.90
10848;DHT22;5477;48.806;9.154;2023-05-10T09:54:33;17.10;99.90
10848;DHT22;5477;48.806;9.154;2023-05-10T09:57:01;17.20;99.90
10848;DHT22;5477;48.806;9.154;2023-05-10T09:59:32;17.40;99.90
10848;DHT22;5477;48.806;9.154;2023-05-10T10:02:01;17.50;99.90
10848;DHT22;5477;48.806;9.154;2023-05-10T10:04:30;17.70;99.90
10848;DHT22;5477;48.806;9.154;2023-05-10T10:07:00;17.80;99.90
10848;DHT22;5477;48.806;9.154;2023-05-10T10:09:29;17.70;99.90
10848;DHT22;5477;48.806;9.154;2023-05-10T10:11:58;17.50;99.90
10848;DHT22;5477;48.806;9.154;2023-05-10T10:14:26;17.40;99.90
10848;DHT22;5477;48.806;9.154;2023-05-10T10:16:56;17.30;99.90
10848;DHT22;5477;48.806;9.154;2023-05-10T10:19:34;17.40;99.90
10848;DHT22;5477;48.806;9.154;2023-05-10T10:22:04;17.40;99.90
10848;DHT22;5477;48.806;9.154;2023-05-10T10:24:34;17.50;99.90
10848;DHT22;5477;48.806;9.154;2023-05-10T10:27:08;17.70;99.90
10848;DHT22;5477;48.806;9.154;2023-05-10T10:29:43;18.00;99.90
10848;DHT22;5477;48.806;9.154;2023-05-10T10:32:22;18.20;99.90
10848;DHT22;5477;48.806;9.154;2023-05-10T10:34:52;18.60;99.90
10848;DHT22;5477;48.806;9.154;2023-05-10T10:37:21;18.80;99.90
10848;DHT22;5477;48.806;9.154;2023-05-10T10:39:50;18.80;99.90
10848;DHT22;5477;48.806;9.154;2023-05-10T10:42:43;18.80;99.90
10848;DHT22;5477;48.806;9.154;2023-05-10T10:45:12;18.70;99.90
10848;DHT22;5477;48.806;9.154;2023-05-10T10:47:40;18.60;99.90
10848;DHT22;5477;48.806;9.154;2023-05-10T10:50:10;18.40;99.90
10848;DHT22;5477;48.806;9.154;2023-05-10T10:52:40;18.00;99.90
10848;DHT22;5477;48.806;9.154;2023-05-10T10:55:11;17.80;99.90
10848;DHT22;5477;48.806;9.154;2023-05-10T10:57:46;17.70;99.90
10848;DHT22;5477;48.806;9.154;2023-05-10T11:00:26;17.60;99.90
10848;DHT22;5477;48.806;9.154;2023-05-10T11:02:57;17.40;99.90
10848;DHT22;5477;48.806;9.154;2023-05-10T11:05:37;17.50;99.90
10848;DHT22;5477;48.806;9.154;2023-05-10T11:08:13;17.60;99.90
10848;DHT22;5477;48.806;9.154;2023-05-10T11:10:52;17.40;99.90
10848;DHT22;5477;48.806;9.154;2023-05-10T11:13:28;16.90;99.90
10848;DHT22;5477;48.806;9.154;2023-05-10T11:15:57;16.50;99.90
10848;DHT22;5477;48.806;9.154;2023-05-10T11:18:28;16.30;99.90
10848;DHT22;5477;48.806;9.154;2023-05-10T11:20:58;16.10;99.90
10848;DHT22;5477;48.806;9.154;2023-05-10T11:23:30;16.20;99.90
10848;DHT22;5477;48.806;9.154;2023-05-10T11:26:00;16.40;99.90
10848;DHT22;5477;48.806;9.154;2023-05-10T11:28:28;16.40;99.90
10848;DHT22;5477;48.806;9.154;2023-05-10T11:30:57;16.60;99.90
10848;DHT22;5477;48.806;9.154;2023-05-10T11:33:25;16.70;99.90
10848;DHT22;5477;48.806;9.154;2023-05-10T11:35:53;16.90;99.90
10848;DHT22;5477;48.806;9.154;2023-05-10T11:38:21;17.10;99.90
10848;DHT22;5477;48.806;9.154;2023-05-10T11:40:51;17.40;99.90
10848;DHT22;5477;48.806;9.154;2023-05-10T11:43:23;17.60;99.90
10848;DHT22;5477;48.806;9.154;2023-05-10T11:45:54;17.40;99.90
10848;DHT22;5477;48.806;9.154;2023-05-10T11:48:22;17.50;99.90
10848;DHT22;5477;48.806;9.154;2023-05-10T11:50:50;17.10;99.90
10848;DHT22;5477;48.806;9.154;2023-05-10T11:53:19;16.90;99.90
10848;DHT22;5477;48.806;9.154;2023-05-10T11:55:49;16.60;99.90
10848;DHT22;5477;48.806;9.154;2023-05-10T11:58:18;16.50;99.90
10848;DHT22;5477;48.806;9.154;2023-05-10T12:00:49;16.30;99.90
10848;DHT22;5477;48.806;9.154;2023-05-10T12:03:17;16.20;99.90
10848;DHT22;5477;48.806;9.154;2023-05-10T12:05:45;16.20;99.90
10848;DHT22;5477;48.806;9.154;2023-05-10T12:08:14;16.20;99.90
10848;DHT22;5477;48.806;9.154;2023-05-10T12:10:42;16.10;99.90
10848;DHT22;5477;48.806;9.154;2023-05-10T12:13:11;16.30;99.90
10848;DHT22;5477;48.806;9.154;2023-05-10T12:15:41;16.40;99.90
10848;DHT22;5477;48.806;9.154;2023-05-10T12:18:11;16.50;99.90
10848;DHT22;5477;48.806;9.154;2023-05-10T12:20:40;16.70;99.90
10848;DHT22;5477;48.806;9.154;2023-05-10T12:23:09;16.80;99.90
10848;DHT22;5477;48.806;9.154;2023-05-10T12:25:38;17.10;99.90
10848;DHT22;5477;48.806;9.154;2023-05-10T12:28:08;17.20;99.90
10848;DHT22;5477;48.806;9.154;2023-05-10T12:30:36;17.30;99.90
10848;DHT22;5477;48.806;9.154;2023-05-10T12:33:09;17.20;99.90
10848;DHT22;5477;48.806;9.154;2023-05-10T12:35:46;17.10;99.90
10848;DHT22;5477;48.806;9.154;2023-05-10T12:38:25;17.30;99.90
10848;DHT22;5477;48.806;9.154;2023-05-10T12:40:56;17.30;99.90
10848;DHT22;5477;48.806;9.154;2023-05-10T12:43:24;17.20;99.90
10848;DHT22;5477;48.806;9.154;2023-05-10T12:45:52;17.30;99.90
10848;DHT22;5477;48.806;9.154;2023-05-10T12:48:20;17.30;99.90
10848;DHT22;5477;48.806;9.154;2023-05-10T12:50:49;17.30;99.90
10848;DHT22;5477;48.806;9.154;2023-05-10T12:53:17;17.40;99.90
10848;DHT22;5477;48.806;9.154;2023-05-10T12:55:45;17.30;99.90
10848;DHT22;5477;48.806;9.154;2023-05-10T12:58:13;17.40;99.90
10848;DHT22;5477;48.806;9.154;2023-05-10T13:01:00;17.30;99.90
10848;DHT22;5477;48.806;9.154;2023-05-10T13:03:28;17.30;99.90
10848;DHT22;5477;48.806;9.154;2023-05-10T13:05:58;17.10;99.90
10848;DHT22;5477;48.806;9.154;2023-05-10T13:08:26;17.10;99.90
10848;DHT22;5477;48.806;9.154;2023-05-10T13:10:56;17.20;99.90
10848;DHT22;5477;48.806;9.154;2023-05-10T13:13:24;17.20;99.90
10848;DHT22;5477;48.806;9.154;2023-05-10T13:15:52;17.20;99.90
10848;DHT22;5477;48.806;9.154;2023-05-10T13:18:20;17.20;99.90
10848;DHT22;5477;48.806;9.154;2023-05-10T13:20:48;17.10;99.90
10848;DHT22;5477;48.806;9.154;2023-05-10T13:23:18;17.20;99.90
10848;DHT22;5477;48.806;9.154;2023-05-10T13:25:46;17.10;99.90
10848;DHT22;5477;48.806;9.154;2023-05-10T13:28:14;17.10;99.90
10848;DHT22;5477;48.806;9.154;2023-05-10T13:30:42;17.10;99.90
10848;DHT22;5477;48.806;9.154;2023-05-10T13:33:10;17.20;99.90
10848;DHT22;5477;48.806;9.154;2023-05-10T13:35:38;17.10;99.90
10848;DHT22;5477;48.806;9.154;2023-05-10T13:38:06;17.10;99.90
10848;DHT22;5477;48.806;9.154;2023-05-10T13:40:36;17.10;99.90
10848;DHT22;5477;48.806;9.154;2023-05-10T13:43:04;17.20;99.90
10848;DHT22;5477;48.806;9.154;2023-05-10T13:45:32;17.30;99.90
10848;DHT22;5477;48.806;9.154;2023-05-10T13:47:59;17.50;99.90
10848;DHT22;5477;48.806;9.154;2023-05-10T13:50:28;17.70;99.90
10848;DHT22;5477;48.806;9.154;2023-05-10T13:52:56;17.80;99.90
10848;DHT22;5477;48.806;9.154;2023-05-10T13:55:24;17.70;99.90
10848;DHT22;5477;48.806;9.154;2023-05-10T13:57:53;17.40;99.90
10848;DHT22;5477;48.806;9.154;2023-05-10T14:00:21;17.40;99.90
10848;DHT22;5477;48.806;9.154;2023-05-10T14:02:49;17.30;99.90
10848;DHT22;5477;48.806;9.154;2023-05-10T14:05:17;17.20;99.90
10848;DHT22;5477;48.806;9.154;2023-05-10T14:07:51;17.40;99.90
10848;DHT22;5477;48.806;9.154;2023-05-10T14:10:19;17.60;99.90
10848;DHT22;5477;48.806;9.154;2023-05-10T14:12:47;17.80;99.90
10848;DHT22;5477;48.806;9.154;2023-05-10T14:15:17;18.00;99.90
10848;DHT22;5477;48.806;9.154;2023-05-10T14:17:45;18.30;99.90
10848;DHT22;5477;48.806;9.154;2023-05-10T14:20:13;18.40;99.90
10848;DHT22;5477;48.806;9.154;2023-05-10T14:22:41;18.20;99.90
10848;DHT22;5477;48.806;9.154;2023-05-10T14:25:09;18.00;99.90
10848;DHT22;5477;48.806;9.154;2023-05-10T14:27:37;18.10;99.90
10848;DHT22;5477;48.806;9.154;2023-05-10T14:30:06;18.20;99.90
10848;DHT22;5477;48.806;9.154;2023-05-10T14:32:35;18.30;99.90
10848;DHT22;5477;48.806;9.154;2023-05-10T14:35:05;18.10;99.90
10848;DHT22;5477;48.806;9.154;2023-05-10T14:37:36;17.80;99.90
10848;DHT22;5477;48.806;9.154;2023-05-10T14:40:06;17.90;99.90
10848;DHT22;5477;48.806;9.154;2023-05-10T14:42:34;17.90;99.90
10848;DHT22;5477;48.806;9.154;2023-05-10T14:45:02;18.00;99.90
10848;DHT22;5477;48.806;9.154;2023-05-10T14:47:30;18.00;99.90
10848;DHT22;5477;48.806;9.154;2023-05-10T14:50:00;18.00;99.90
10848;DHT22;5477;48.806;9.154;2023-05-10T14:52:29;18.20;99.90
10848;DHT22;5477;48.806;9.154;2023-05-10T14:55:00;18.10;99.90
10848;DHT22;5477;48.806;9.154;2023-05-10T14:57:28;18.10;99.90
10848;DHT22;5477;48.806;9.154;2023-05-10T14:59:56;18.10;99.90
10848;DHT22;5477;48.806;9.154;2023-05-10T15:02:24;18.10;99.90
10848;DHT22;5477;48.806;9.154;2023-05-10T15:04:52;18.10;99.90
10848;DHT22;5477;48.806;9.154;2023-05-10T15:07:22;18.10;99.90
10848;DHT22;5477;48.806;9.154;2023-05-10T15:09:50;18.20;99.90
10848;DHT22;5477;48.806;9.154;2023-05-10T15:12:18;18.30;99.90
10848;DHT22;5477;48.806;9.154;2023-05-10T15:14:46;18.50;99.90
10848;DHT22;5477;48.806;9.154;2023-05-10T15:17:14;18.60;99.90
10848;DHT22;5477;48.806;9.154;2023-05-10T15:19:42;18.70;99.90
10848;DHT22;5477;48.806;9.154;2023-05-10T15:22:10;18.60;99.90
10848;DHT22;5477;48.806;9.154;2023-05-10T15:24:40;18.50;99.90
10848;DHT22;5477;48.806;9.154;2023-05-10T15:27:07;18.70;99.90
10848;DHT22;5477;48.806;9.154;2023-05-10T15:29:35;18.70;99.90
10848;DHT22;5477;48.806;9.154;2023-05-10T15:32:03;18.70;99.90
10848;DHT22;5477;48.806;9.154;2023-05-10T15:34:31;18.70;99.90
10848;DHT22;5477;48.806;9.154;2023-05-10T15:37:02;18.60;99.90
10848;DHT22;5477;48.806;9.154;2023-05-10T15:39:30;18.40;99.90
10848;DHT22;5477;48.806;9.154;2023-05-10T15:41:59;18.40;99.90
10848;DHT22;5477;48.806;9.154;2023-05-10T15:44:28;18.40;99.90
10848;DHT22;5477;48.806;9.154;2023-05-10T15:46:56;18.40;99.90
10848;DHT22;5477;48.806;9.154;2023-05-10T15:49:24;18.60;99.90
10848;DHT22;5477;48.806;9.154;2023-05-10T15:51:52;18.50;99.90
10848;DHT22;5477;48.806;9.154;2023-05-10T15:54:20;18.60;99.90
10848;DHT22;5477;48.806;9.154;2023-05-10T15:56:48;18.60;99.90
10848;DHT22;5477;48.806;9.154;2023-05-10T15:59:17;18.60;99.90
10848;DHT22;5477;48.806;9.154;2023-05-10T16:01:45;18.40;99.90